South Britain, CT

3:30 AM EDT on July 31, 2015 (GMT -0400)
KCTSOUTH13 | | Change Station
CLOSE
Current Station
Personal Weather Station
Location: Astrium Satellite, Southbury, CT
Elevation: 121 ft
Nearby Weather Stations

Elev 121 ft 41.45 °N, 73.29 °W | Updated 51 seconds ago

Mostly Cloudy
Mostly Cloudy
72.0 °F
Feels Like 72.0 °F
N
0.0
Wind Variable Wind from SW
Gusts 0.0 mph

Today
High -- | Low -- °F
--% Chance of Precip.
Yesterday
High -- | Low -- °F
Precip. -- in
5:46 AM 8:11 PM
Full, 100% visible
Pressure 29.86 in
Visibility 0.5 miles
Clouds Overcast 100 ft
Dew Point 70 °F
Humidity 95%
Rainfall 0.00 in
Snow Depth Not available.
UV 0 out of 12
Pollen 6.40 out of 12
Air Quality Not available.
Flu Activity Not available.
METAR KOXC 310715Z 31003KT 1/2SM OVC001 22/18 A2986 RMK AO1

More Conditions Fewer Conditions

Pressure 29.86 in
Visibility 0.5 miles
Clouds Overcast 100 ft
Dew Point 70 °F
Humidity 95%
Rainfall 0.00 in
Snow Depth Not available.
UV 0 out of 12
Pollen 6.40 out of 12
Air Quality Not available.
Flu Activity Not available.
METAR KOXC 310715Z 31003KT 1/2SM OVC001 22/18 A2986 RMK AO1

More Conditions Fewer Conditions

10-Day Weather Forecast

×

Almanac

Astronomy

Jul. 31, 2015 Rise Set
Actual Time
Civil Twilight
Nautical Twilight
Astronomical Twilight
Moon
Length of Visible Light
Length of Day
Tomorrow will be .
, % of the Moon is Illuminated

Today's Extremes

State Highs State Lows

Community

WunderPhotos

Upload Photos

1,842,634 photos uploaded!

WunderBlogs® & News

Nearby

Air Quality

  Air Quality AQ Index Pollutant
Not available.

Snow Depth

Station Depth Elevation

Earthquake Activity

City Distance Mag. Time & Date
Minimum magnitude displayed is 2.5.

Coastal Water Temperatures

Place Temperature

Stations

Nearby Weather Stations

Station Location Temp. Windchill Dew Point Humidity Wind Precip. Elev Updated Type